sensor_id;sensor_type;location;lat;lon;timestamp;P1;durP1;ratioP1;P2;durP2;ratioP2
53145;SDS011;39042;53.150;5.898;2024-02-14T00:00:12;18.25;;;9.65;;
53145;SDS011;39042;53.150;5.898;2024-02-14T00:02:44;17.08;;;9.25;;
53145;SDS011;39042;53.150;5.898;2024-02-14T00:05:11;16.35;;;9.43;;
53145;SDS011;39042;53.150;5.898;2024-02-14T00:07:37;15.33;;;9.77;;
53145;SDS011;39042;53.150;5.898;2024-02-14T00:10:05;14.88;;;9.88;;
53145;SDS011;39042;53.150;5.898;2024-02-14T00:15:01;15.80;;;10.02;;
53145;SDS011;39042;53.150;5.898;2024-02-14T00:17:28;17.02;;;10.70;;
53145;SDS011;39042;53.150;5.898;2024-02-14T00:19:55;17.40;;;9.90;;
53145;SDS011;39042;53.150;5.898;2024-02-14T00:22:21;16.40;;;10.65;;
53145;SDS011;39042;53.150;5.898;2024-02-14T00:24:47;18.20;;;10.97;;
53145;SDS011;39042;53.150;5.898;2024-02-14T00:27:12;16.03;;;10.43;;
53145;SDS011;39042;53.150;5.898;2024-02-14T00:32:05;16.02;;;10.15;;
53145;SDS011;39042;53.150;5.898;2024-02-14T00:34:32;19.23;;;10.88;;
53145;SDS011;39042;53.150;5.898;2024-02-14T00:36:57;14.87;;;10.13;;
53145;SDS011;39042;53.150;5.898;2024-02-14T00:39:24;17.10;;;10.52;;
53145;SDS011;39042;53.150;5.898;2024-02-14T00:41:49;15.60;;;10.53;;
53145;SDS011;39042;53.150;5.898;2024-02-14T00:44:17;18.00;;;11.57;;
53145;SDS011;39042;53.150;5.898;2024-02-14T00:46:44;18.70;;;11.00;;
53145;SDS011;39042;53.150;5.898;2024-02-14T00:49:11;16.73;;;10.85;;
53145;SDS011;39042;53.150;5.898;2024-02-14T00:51:37;16.85;;;10.77;;
53145;SDS011;39042;53.150;5.898;2024-02-14T00:54:03;15.32;;;10.82;;
53145;SDS011;39042;53.150;5.898;2024-02-14T00:56:29;15.97;;;10.57;;
53145;SDS011;39042;53.150;5.898;2024-02-14T00:58:55;15.27;;;10.40;;
53145;SDS011;39042;53.150;5.898;2024-02-14T01:01:22;13.48;;;9.73;;
53145;SDS011;39042;53.150;5.898;2024-02-14T01:03:48;14.73;;;10.32;;
53145;SDS011;39042;53.150;5.898;2024-02-14T01:06:14;12.10;;;9.47;;
53145;SDS011;39042;53.150;5.898;2024-02-14T01:08:41;15.40;;;10.35;;
53145;SDS011;39042;53.150;5.898;2024-02-14T01:11:07;13.50;;;10.15;;
53145;SDS011;39042;53.150;5.898;2024-02-14T01:13:33;14.93;;;10.23;;
53145;SDS011;39042;53.150;5.898;2024-02-14T01:15:59;14.87;;;10.30;;
53145;SDS011;39042;53.150;5.898;2024-02-14T01:18:25;13.67;;;9.97;;
53145;SDS011;39042;53.150;5.898;2024-02-14T01:20:51;16.53;;;9.83;;
53145;SDS011;39042;53.150;5.898;2024-02-14T01:23:17;17.37;;;9.63;;
53145;SDS011;39042;53.150;5.898;2024-02-14T01:25:42;15.33;;;9.70;;
53145;SDS011;39042;53.150;5.898;2024-02-14T01:28:09;14.63;;;9.65;;
53145;SDS011;39042;53.150;5.898;2024-02-14T01:30:35;14.68;;;10.30;;
53145;SDS011;39042;53.150;5.898;2024-02-14T01:33:04;14.13;;;9.50;;
53145;SDS011;39042;53.150;5.898;2024-02-14T01:35:30;13.02;;;9.38;;
53145;SDS011;39042;53.150;5.898;2024-02-14T01:37:56;14.25;;;10.25;;
53145;SDS011;39042;53.150;5.898;2024-02-14T01:40:25;13.13;;;8.98;;
53145;SDS011;39042;53.150;5.898;2024-02-14T01:42:50;12.40;;;8.75;;
53145;SDS011;39042;53.150;5.898;2024-02-14T01:45:17;14.48;;;9.90;;
53145;SDS011;39042;53.150;5.898;2024-02-14T01:47:44;14.68;;;10.13;;
53145;SDS011;39042;53.150;5.898;2024-02-14T01:50:09;8.93;;;6.87;;
53145;SDS011;39042;53.150;5.898;2024-02-14T01:55:06;16.15;;;9.18;;
53145;SDS011;39042;53.150;5.898;2024-02-14T01:57:33;14.52;;;9.52;;
53145;SDS011;39042;53.150;5.898;2024-02-14T02:02:37;15.07;;;10.13;;
53145;SDS011;39042;53.150;5.898;2024-02-14T02:05:11;12.35;;;9.90;;
53145;SDS011;39042;53.150;5.898;2024-02-14T02:07:37;15.38;;;10.35;;
53145;SDS011;39042;53.150;5.898;2024-02-14T02:10:05;16.20;;;10.48;;
53145;SDS011;39042;53.150;5.898;2024-02-14T02:12:31;12.93;;;9.10;;
53145;SDS011;39042;53.150;5.898;2024-02-14T02:14:57;15.00;;;10.10;;
53145;SDS011;39042;53.150;5.898;2024-02-14T02:17:24;15.88;;;10.40;;
53145;SDS011;39042;53.150;5.898;2024-02-14T02:19:49;12.75;;;9.15;;
53145;SDS011;39042;53.150;5.898;2024-02-14T02:22:18;16.38;;;10.38;;
53145;SDS011;39042;53.150;5.898;2024-02-14T02:24:44;15.17;;;10.13;;
53145;SDS011;39042;53.150;5.898;2024-02-14T02:27:10;17.88;;;11.00;;
53145;SDS011;39042;53.150;5.898;2024-02-14T02:29:39;18.40;;;11.38;;
53145;SDS011;39042;53.150;5.898;2024-02-14T02:32:04;19.60;;;11.47;;
53145;SDS011;39042;53.150;5.898;2024-02-14T02:34:31;17.08;;;11.07;;
53145;SDS011;39042;53.150;5.898;2024-02-14T02:36:57;14.00;;;8.93;;
53145;SDS011;39042;53.150;5.898;2024-02-14T02:39:23;15.90;;;10.17;;
53145;SDS011;39042;53.150;5.898;2024-02-14T02:41:49;17.73;;;10.23;;
53145;SDS011;39042;53.150;5.898;2024-02-14T02:44:15;16.13;;;10.40;;
53145;SDS011;39042;53.150;5.898;2024-02-14T02:46:41;18.33;;;10.77;;
53145;SDS011;39042;53.150;5.898;2024-02-14T02:49:06;18.20;;;10.47;;
53145;SDS011;39042;53.150;5.898;2024-02-14T02:51:32;16.10;;;10.75;;
53145;SDS011;39042;53.150;5.898;2024-02-14T02:53:58;16.97;;;10.63;;
53145;SDS011;39042;53.150;5.898;2024-02-14T02:56:24;18.07;;;11.60;;
53145;SDS011;39042;53.150;5.898;2024-02-14T02:58:53;18.20;;;11.10;;
53145;SDS011;39042;53.150;5.898;2024-02-14T03:01:20;19.85;;;11.57;;
53145;SDS011;39042;53.150;5.898;2024-02-14T03:03:49;18.15;;;11.27;;
53145;SDS011;39042;53.150;5.898;2024-02-14T03:06:15;18.67;;;10.97;;
53145;SDS011;39042;53.150;5.898;2024-02-14T03:08:41;19.85;;;11.32;;
53145;SDS011;39042;53.150;5.898;2024-02-14T03:11:07;16.10;;;9.93;;
53145;SDS011;39042;53.150;5.898;2024-02-14T03:13:32;16.65;;;9.63;;
53145;SDS011;39042;53.150;5.898;2024-02-14T03:16:00;16.55;;;9.38;;
53145;SDS011;39042;53.150;5.898;2024-02-14T03:18:26;14.03;;;8.53;;
53145;SDS011;39042;53.150;5.898;2024-02-14T03:20:52;12.43;;;8.10;;
53145;SDS011;39042;53.150;5.898;2024-02-14T03:23:21;11.25;;;7.32;;
53145;SDS011;39042;53.150;5.898;2024-02-14T03:25:47;13.10;;;8.30;;
53145;SDS011;39042;53.150;5.898;2024-02-14T03:28:13;11.17;;;7.23;;
53145;SDS011;39042;53.150;5.898;2024-02-14T03:30:39;12.57;;;7.35;;
53145;SDS011;39042;53.150;5.898;2024-02-14T03:33:05;12.85;;;7.47;;
53145;SDS011;39042;53.150;5.898;2024-02-14T03:35:33;13.10;;;7.68;;
53145;SDS011;39042;53.150;5.898;2024-02-14T03:38:02;14.13;;;8.55;;
53145;SDS011;39042;53.150;5.898;2024-02-14T03:40:29;14.70;;;8.50;;
53145;SDS011;39042;53.150;5.898;2024-02-14T03:42:57;15.43;;;8.48;;
53145;SDS011;39042;53.150;5.898;2024-02-14T03:45:23;16.90;;;8.97;;
53145;SDS011;39042;53.150;5.898;2024-02-14T03:47:49;17.30;;;8.70;;
53145;SDS011;39042;53.150;5.898;2024-02-14T03:50:15;18.53;;;9.10;;
53145;SDS011;39042;53.150;5.898;2024-02-14T03:52:41;15.00;;;7.80;;
53145;SDS011;39042;53.150;5.898;2024-02-14T03:55:10;16.90;;;8.77;;
53145;SDS011;39042;53.150;5.898;2024-02-14T03:57:39;17.70;;;7.82;;
53145;SDS011;39042;53.150;5.898;2024-02-14T04:00:05;18.20;;;7.43;;
53145;SDS011;39042;53.150;5.898;2024-02-14T04:02:38;17.38;;;7.78;;
53145;SDS011;39042;53.150;5.898;2024-02-14T04:05:05;18.10;;;7.10;;
53145;SDS011;39042;53.150;5.898;2024-02-14T04:07:32;17.60;;;7.28;;
53145;SDS011;39042;53.150;5.898;2024-02-14T04:09:59;14.15;;;7.30;;
53145;SDS011;39042;53.150;5.898;2024-02-14T04:12:25;14.35;;;6.50;;
53145;SDS011;39042;53.150;5.898;2024-02-14T04:14:51;13.15;;;6.65;;
53145;SDS011;39042;53.150;5.898;2024-02-14T04:17:17;20.83;;;7.80;;
53145;SDS011;39042;53.150;5.898;2024-02-14T04:19:43;15.77;;;6.27;;
53145;SDS011;39042;53.150;5.898;2024-02-14T04:22:08;15.57;;;6.67;;
53145;SDS011;39042;53.150;5.898;2024-02-14T04:24:34;14.05;;;5.60;;
53145;SDS011;39042;53.150;5.898;2024-02-14T04:27:00;16.25;;;6.65;;
53145;SDS011;39042;53.150;5.898;2024-02-14T04:29:29;19.23;;;6.95;;
53145;SDS011;39042;53.150;5.898;2024-02-14T04:31:58;16.05;;;7.00;;
53145;SDS011;39042;53.150;5.898;2024-02-14T04:36:50;18.27;;;7.38;;
53145;SDS011;39042;53.150;5.898;2024-02-14T04:39:17;15.37;;;6.90;;
53145;SDS011;39042;53.150;5.898;2024-02-14T04:41:43;19.05;;;6.65;;
53145;SDS011;39042;53.150;5.898;2024-02-14T04:44:08;15.37;;;6.50;;
53145;SDS011;39042;53.150;5.898;2024-02-14T04:46:34;20.10;;;6.47;;
53145;SDS011;39042;53.150;5.898;2024-02-14T04:49:01;22.17;;;7.68;;
53145;SDS011;39042;53.150;5.898;2024-02-14T04:51:30;18.90;;;6.82;;
53145;SDS011;39042;53.150;5.898;2024-02-14T04:53:56;21.00;;;5.60;;
53145;SDS011;39042;53.150;5.898;2024-02-14T04:56:26;20.48;;;7.20;;
53145;SDS011;39042;53.150;5.898;2024-02-14T04:58:53;17.92;;;6.93;;
53145;SDS011;39042;53.150;5.898;2024-02-14T05:01:20;14.57;;;7.13;;
53145;SDS011;39042;53.150;5.898;2024-02-14T05:03:46;18.93;;;7.43;;
53145;SDS011;39042;53.150;5.898;2024-02-14T05:06:12;28.13;;;7.80;;
53145;SDS011;39042;53.150;5.898;2024-02-14T05:08:38;26.45;;;7.40;;
53145;SDS011;39042;53.150;5.898;2024-02-14T05:11:03;22.80;;;7.53;;
53145;SDS011;39042;53.150;5.898;2024-02-14T05:13:30;26.07;;;6.70;;
53145;SDS011;39042;53.150;5.898;2024-02-14T05:15:56;25.33;;;6.80;;
53145;SDS011;39042;53.150;5.898;2024-02-14T05:18:22;23.08;;;6.28;;
53145;SDS011;39042;53.150;5.898;2024-02-14T05:20:48;30.13;;;6.80;;
53145;SDS011;39042;53.150;5.898;2024-02-14T05:23:14;31.25;;;7.45;;
53145;SDS011;39042;53.150;5.898;2024-02-14T05:25:43;30.52;;;6.82;;
53145;SDS011;39042;53.150;5.898;2024-02-14T05:28:09;38.10;;;7.63;;
53145;SDS011;39042;53.150;5.898;2024-02-14T05:30:39;41.05;;;8.27;;
53145;SDS011;39042;53.150;5.898;2024-02-14T05:33:07;40.78;;;7.97;;
53145;SDS011;39042;53.150;5.898;2024-02-14T05:35:33;41.43;;;8.53;;
53145;SDS011;39042;53.150;5.898;2024-02-14T05:37:59;44.23;;;8.03;;
53145;SDS011;39042;53.150;5.898;2024-02-14T05:40:25;51.72;;;7.85;;
53145;SDS011;39042;53.150;5.898;2024-02-14T05:42:51;50.47;;;6.40;;
53145;SDS011;39042;53.150;5.898;2024-02-14T05:45:17;45.78;;;6.35;;
53145;SDS011;39042;53.150;5.898;2024-02-14T05:47:43;59.80;;;6.90;;
53145;SDS011;39042;53.150;5.898;2024-02-14T05:50:08;49.20;;;6.32;;
53145;SDS011;39042;53.150;5.898;2024-02-14T05:52:37;45.10;;;6.68;;
53145;SDS011;39042;53.150;5.898;2024-02-14T05:55:03;52.80;;;6.50;;
53145;SDS011;39042;53.150;5.898;2024-02-14T05:57:30;47.38;;;6.03;;
53145;SDS011;39042;53.150;5.898;2024-02-14T05:59:56;42.27;;;6.93;;
53145;SDS011;39042;53.150;5.898;2024-02-14T06:02:22;44.80;;;6.67;;
53145;SDS011;39042;53.150;5.898;2024-02-14T06:04:47;40.57;;;6.30;;
53145;SDS011;39042;53.150;5.898;2024-02-14T06:07:13;51.30;;;7.07;;
53145;SDS011;39042;53.150;5.898;2024-02-14T06:09:39;38.83;;;7.33;;
53145;SDS011;39042;53.150;5.898;2024-02-14T06:12:06;50.70;;;7.23;;
53145;SDS011;39042;53.150;5.898;2024-02-14T06:14:32;40.33;;;7.28;;
53145;SDS011;39042;53.150;5.898;2024-02-14T06:16:59;48.60;;;8.00;;
53145;SDS011;39042;53.150;5.898;2024-02-14T06:19:28;39.47;;;8.45;;
53145;SDS011;39042;53.150;5.898;2024-02-14T06:21:55;52.92;;;8.13;;
53145;SDS011;39042;53.150;5.898;2024-02-14T06:24:21;60.63;;;8.33;;
53145;SDS011;39042;53.150;5.898;2024-02-14T06:26:46;44.80;;;7.57;;
53145;SDS011;39042;53.150;5.898;2024-02-14T06:29:12;49.33;;;6.82;;
53145;SDS011;39042;53.150;5.898;2024-02-14T06:31:38;49.38;;;6.25;;
53145;SDS011;39042;53.150;5.898;2024-02-14T06:34:05;45.70;;;7.03;;
53145;SDS011;39042;53.150;5.898;2024-02-14T06:36:32;39.40;;;6.00;;
53145;SDS011;39042;53.150;5.898;2024-02-14T06:38:58;48.67;;;8.43;;
53145;SDS011;39042;53.150;5.898;2024-02-14T06:41:24;62.55;;;8.10;;
53145;SDS011;39042;53.150;5.898;2024-02-14T06:43:50;50.72;;;6.90;;
53145;SDS011;39042;53.150;5.898;2024-02-14T06:46:16;46.77;;;6.87;;
53145;SDS011;39042;53.150;5.898;2024-02-14T06:48:41;44.53;;;6.20;;
53145;SDS011;39042;53.150;5.898;2024-02-14T06:51:07;50.70;;;7.00;;
53145;SDS011;39042;53.150;5.898;2024-02-14T06:53:33;52.77;;;7.27;;
53145;SDS011;39042;53.150;5.898;2024-02-14T06:55:59;49.45;;;7.15;;
53145;SDS011;39042;53.150;5.898;2024-02-14T06:58:25;46.73;;;6.50;;
53145;SDS011;39042;53.150;5.898;2024-02-14T07:00:51;51.47;;;6.80;;
53145;SDS011;39042;53.150;5.898;2024-02-14T07:03:17;49.13;;;7.28;;
53145;SDS011;39042;53.150;5.898;2024-02-14T07:05:43;51.22;;;7.13;;
53145;SDS011;39042;53.150;5.898;2024-02-14T07:08:09;48.90;;;6.33;;
53145;SDS011;39042;53.150;5.898;2024-02-14T07:10:35;45.23;;;8.57;;
53145;SDS011;39042;53.150;5.898;2024-02-14T07:13:01;50.58;;;10.55;;
53145;SDS011;39042;53.150;5.898;2024-02-14T07:15:28;54.95;;;8.90;;
53145;SDS011;39042;53.150;5.898;2024-02-14T07:17:54;42.38;;;8.77;;
53145;SDS011;39042;53.150;5.898;2024-02-14T07:20:21;53.85;;;8.88;;
53145;SDS011;39042;53.150;5.898;2024-02-14T07:22:47;51.65;;;7.20;;
53145;SDS011;39042;53.150;5.898;2024-02-14T07:25:18;42.00;;;5.78;;
53145;SDS011;39042;53.150;5.898;2024-02-14T07:27:45;49.95;;;6.88;;
53145;SDS011;39042;53.150;5.898;2024-02-14T07:30:13;44.05;;;7.05;;
53145;SDS011;39042;53.150;5.898;2024-02-14T07:32:39;41.80;;;6.55;;
53145;SDS011;39042;53.150;5.898;2024-02-14T07:35:05;53.50;;;7.57;;
53145;SDS011;39042;53.150;5.898;2024-02-14T07:37:31;44.33;;;6.85;;
53145;SDS011;39042;53.150;5.898;2024-02-14T07:39:58;53.30;;;6.00;;
53145;SDS011;39042;53.150;5.898;2024-02-14T07:42:24;44.30;;;6.05;;
53145;SDS011;39042;53.150;5.898;2024-02-14T07:44:50;51.88;;;6.95;;
53145;SDS011;39042;53.150;5.898;2024-02-14T07:47:15;36.23;;;7.83;;
53145;SDS011;39042;53.150;5.898;2024-02-14T07:49:41;56.05;;;8.23;;
53145;SDS011;39042;53.150;5.898;2024-02-14T07:52:07;39.57;;;7.90;;
53145;SDS011;39042;53.150;5.898;2024-02-14T07:54:33;50.83;;;7.90;;
53145;SDS011;39042;53.150;5.898;2024-02-14T07:56:59;47.53;;;8.83;;
53145;SDS011;39042;53.150;5.898;2024-02-14T07:59:25;49.33;;;8.27;;
53145;SDS011;39042;53.150;5.898;2024-02-14T08:01:52;46.90;;;6.55;;
53145;SDS011;39042;53.150;5.898;2024-02-14T08:04:18;41.00;;;6.80;;
53145;SDS011;39042;53.150;5.898;2024-02-14T08:06:47;37.00;;;6.77;;
53145;SDS011;39042;53.150;5.898;2024-02-14T08:09:15;39.55;;;8.48;;
53145;SDS011;39042;53.150;5.898;2024-02-14T08:11:41;38.87;;;8.00;;
53145;SDS011;39042;53.150;5.898;2024-02-14T08:14:07;34.88;;;8.80;;
53145;SDS011;39042;53.150;5.898;2024-02-14T08:16:33;41.80;;;7.90;;
53145;SDS011;39042;53.150;5.898;2024-02-14T08:18:59;29.90;;;5.95;;
53145;SDS011;39042;53.150;5.898;2024-02-14T08:21:25;49.33;;;7.80;;
53145;SDS011;39042;53.150;5.898;2024-02-14T08:23:55;40.90;;;7.90;;
53145;SDS011;39042;53.150;5.898;2024-02-14T08:26:21;36.47;;;7.22;;
53145;SDS011;39042;53.150;5.898;2024-02-14T08:28:50;39.30;;;8.80;;
53145;SDS011;39042;53.150;5.898;2024-02-14T08:31:16;46.40;;;9.00;;
53145;SDS011;39042;53.150;5.898;2024-02-14T08:33:42;38.00;;;7.87;;
53145;SDS011;39042;53.150;5.898;2024-02-14T08:36:09;43.28;;;7.70;;
53145;SDS011;39042;53.150;5.898;2024-02-14T08:38:35;42.78;;;9.18;;
53145;SDS011;39042;53.150;5.898;2024-02-14T08:41:04;39.03;;;7.97;;
53145;SDS011;39042;53.150;5.898;2024-02-14T08:43:31;40.00;;;8.73;;
53145;SDS011;39042;53.150;5.898;2024-02-14T08:45:57;53.17;;;9.20;;
53145;SDS011;39042;53.150;5.898;2024-02-14T08:48:23;44.33;;;8.20;;
53145;SDS011;39042;53.150;5.898;2024-02-14T08:50:49;45.92;;;8.05;;
53145;SDS011;39042;53.150;5.898;2024-02-14T08:53:15;39.80;;;9.45;;
53145;SDS011;39042;53.150;5.898;2024-02-14T08:55:41;34.53;;;8.55;;
53145;SDS011;39042;53.150;5.898;2024-02-14T08:58:07;39.95;;;8.55;;
53145;SDS011;39042;53.150;5.898;2024-02-14T09:00:35;39.42;;;9.88;;
53145;SDS011;39042;53.150;5.898;2024-02-14T09:03:04;51.17;;;8.85;;
53145;SDS011;39042;53.150;5.898;2024-02-14T09:05:31;42.13;;;9.52;;
53145;SDS011;39042;53.150;5.898;2024-02-14T09:07:57;34.95;;;8.05;;
53145;SDS011;39042;53.150;5.898;2024-02-14T09:10:24;44.08;;;9.25;;
53145;SDS011;39042;53.150;5.898;2024-02-14T09:12:50;41.10;;;10.88;;
53145;SDS011;39042;53.150;5.898;2024-02-14T09:15:16;35.30;;;7.67;;
53145;SDS011;39042;53.150;5.898;2024-02-14T09:17:42;42.17;;;8.43;;
53145;SDS011;39042;53.150;5.898;2024-02-14T09:20:08;36.60;;;9.95;;
53145;SDS011;39042;53.150;5.898;2024-02-14T09:25:01;39.72;;;8.52;;
53145;SDS011;39042;53.150;5.898;2024-02-14T09:27:32;48.63;;;16.75;;
53145;SDS011;39042;53.150;5.898;2024-02-14T09:30:00;73.93;;;25.95;;
53145;SDS011;39042;53.150;5.898;2024-02-14T09:32:29;40.70;;;10.13;;
53145;SDS011;39042;53.150;5.898;2024-02-14T09:34:56;32.35;;;8.07;;
53145;SDS011;39042;53.150;5.898;2024-02-14T09:37:22;33.75;;;7.85;;
53145;SDS011;39042;53.150;5.898;2024-02-14T09:39:49;41.35;;;9.00;;
53145;SDS011;39042;53.150;5.898;2024-02-14T09:42:16;28.25;;;8.63;;
53145;SDS011;39042;53.150;5.898;2024-02-14T09:44:45;31.35;;;8.43;;
53145;SDS011;39042;53.150;5.898;2024-02-14T09:47:12;26.83;;;6.63;;
53145;SDS011;39042;53.150;5.898;2024-02-14T09:49:40;30.05;;;9.10;;
53145;SDS011;39042;53.150;5.898;2024-02-14T09:52:07;25.55;;;8.43;;
53145;SDS011;39042;53.150;5.898;2024-02-14T09:54:36;27.92;;;8.63;;
53145;SDS011;39042;53.150;5.898;2024-02-14T09:57:04;23.30;;;8.25;;
53145;SDS011;39042;53.150;5.898;2024-02-14T09:59:31;27.67;;;9.75;;
53145;SDS011;39042;53.150;5.898;2024-02-14T10:01:58;22.15;;;8.35;;
53145;SDS011;39042;53.150;5.898;2024-02-14T10:04:24;23.70;;;7.72;;
53145;SDS011;39042;53.150;5.898;2024-02-14T10:06:50;24.70;;;7.45;;
53145;SDS011;39042;53.150;5.898;2024-02-14T10:09:20;26.00;;;8.63;;
53145;SDS011;39042;53.150;5.898;2024-02-14T10:11:47;20.80;;;7.78;;
53145;SDS011;39042;53.150;5.898;2024-02-14T10:14:13;23.10;;;8.02;;
53145;SDS011;39042;53.150;5.898;2024-02-14T10:16:39;23.25;;;8.48;;
53145;SDS011;39042;53.150;5.898;2024-02-14T10:19:14;23.77;;;9.85;;
53145;SDS011;39042;53.150;5.898;2024-02-14T10:21:43;25.33;;;10.90;;
53145;SDS011;39042;53.150;5.898;2024-02-14T10:24:20;25.70;;;9.75;;
53145;SDS011;39042;53.150;5.898;2024-02-14T10:26:46;24.80;;;10.00;;
53145;SDS011;39042;53.150;5.898;2024-02-14T10:29:13;29.40;;;11.02;;
53145;SDS011;39042;53.150;5.898;2024-02-14T10:31:40;38.30;;;12.57;;
53145;SDS011;39042;53.150;5.898;2024-02-14T10:34:06;33.47;;;11.13;;
53145;SDS011;39042;53.150;5.898;2024-02-14T10:36:34;35.88;;;10.63;;
53145;SDS011;39042;53.150;5.898;2024-02-14T10:39:01;29.13;;;9.93;;
53145;SDS011;39042;53.150;5.898;2024-02-14T10:41:30;33.72;;;10.65;;
53145;SDS011;39042;53.150;5.898;2024-02-14T10:44:02;31.23;;;10.15;;
53145;SDS011;39042;53.150;5.898;2024-02-14T10:46:29;27.13;;;9.85;;
53145;SDS011;39042;53.150;5.898;2024-02-14T10:49:02;29.30;;;9.02;;
53145;SDS011;39042;53.150;5.898;2024-02-14T10:51:33;25.33;;;9.27;;
53145;SDS011;39042;53.150;5.898;2024-02-14T10:54:01;23.45;;;9.98;;
53145;SDS011;39042;53.150;5.898;2024-02-14T10:56:31;28.27;;;10.18;;
53145;SDS011;39042;53.150;5.898;2024-02-14T10:59:00;28.80;;;9.73;;
53145;SDS011;39042;53.150;5.898;2024-02-14T11:01:27;24.67;;;9.32;;
53145;SDS011;39042;53.150;5.898;2024-02-14T11:04:00;21.88;;;9.75;;
53145;SDS011;39042;53.150;5.898;2024-02-14T11:06:27;54.90;;;23.23;;
53145;SDS011;39042;53.150;5.898;2024-02-14T11:08:57;29.13;;;12.45;;
53145;SDS011;39042;53.150;5.898;2024-02-14T11:11:32;20.83;;;9.60;;
53145;SDS011;39042;53.150;5.898;2024-02-14T11:13:59;15.25;;;7.53;;
53145;SDS011;39042;53.150;5.898;2024-02-14T11:16:28;22.77;;;7.78;;
53145;SDS011;39042;53.150;5.898;2024-02-14T11:19:10;20.35;;;7.90;;
53145;SDS011;39042;53.150;5.898;2024-02-14T11:21:41;18.20;;;7.95;;
53145;SDS011;39042;53.150;5.898;2024-02-14T11:24:11;18.17;;;6.60;;
53145;SDS011;39042;53.150;5.898;2024-02-14T11:26:47;15.90;;;6.20;;
53145;SDS011;39042;53.150;5.898;2024-02-14T11:29:14;17.20;;;6.60;;
53145;SDS011;39042;53.150;5.898;2024-02-14T11:31:44;18.88;;;6.22;;
53145;SDS011;39042;53.150;5.898;2024-02-14T11:36:38;13.60;;;6.93;;
53145;SDS011;39042;53.150;5.898;2024-02-14T11:39:07;20.10;;;7.53;;
53145;SDS011;39042;53.150;5.898;2024-02-14T11:41:33;17.70;;;7.30;;
53145;SDS011;39042;53.150;5.898;2024-02-14T11:44:08;15.77;;;6.88;;
53145;SDS011;39042;53.150;5.898;2024-02-14T11:46:35;16.33;;;7.20;;
53145;SDS011;39042;53.150;5.898;2024-02-14T11:49:02;12.50;;;6.88;;
53145;SDS011;39042;53.150;5.898;2024-02-14T11:51:30;15.27;;;6.75;;
53145;SDS011;39042;53.150;5.898;2024-02-14T11:54:01;14.45;;;6.93;;
53145;SDS011;39042;53.150;5.898;2024-02-14T11:56:30;11.65;;;6.38;;
53145;SDS011;39042;53.150;5.898;2024-02-14T11:58:59;13.25;;;6.40;;
53145;SDS011;39042;53.150;5.898;2024-02-14T12:01:35;9.00;;;5.60;;
53145;SDS011;39042;53.150;5.898;2024-02-14T12:04:03;11.77;;;6.07;;
53145;SDS011;39042;53.150;5.898;2024-02-14T12:06:32;13.27;;;6.03;;
53145;SDS011;39042;53.150;5.898;2024-02-14T12:09:04;11.75;;;5.28;;
53145;SDS011;39042;53.150;5.898;2024-02-14T12:11:33;13.07;;;6.13;;
53145;SDS011;39042;53.150;5.898;2024-02-14T12:14:02;12.27;;;5.47;;
53145;SDS011;39042;53.150;5.898;2024-02-14T12:16:30;11.25;;;5.72;;
53145;SDS011;39042;53.150;5.898;2024-02-14T12:19:03;12.88;;;5.55;;
53145;SDS011;39042;53.150;5.898;2024-02-14T12:21:34;13.23;;;5.60;;
53145;SDS011;39042;53.150;5.898;2024-02-14T12:24:01;9.27;;;5.50;;
53145;SDS011;39042;53.150;5.898;2024-02-14T12:26:29;14.07;;;5.53;;
53145;SDS011;39042;53.150;5.898;2024-02-14T12:28:57;11.13;;;6.00;;
53145;SDS011;39042;53.150;5.898;2024-02-14T12:31:23;12.77;;;6.07;;
53145;SDS011;39042;53.150;5.898;2024-02-14T12:36:17;11.68;;;6.47;;
53145;SDS011;39042;53.150;5.898;2024-02-14T12:38:44;12.55;;;6.60;;
53145;SDS011;39042;53.150;5.898;2024-02-14T12:41:12;12.40;;;6.43;;
53145;SDS011;39042;53.150;5.898;2024-02-14T12:43:39;11.57;;;6.60;;
53145;SDS011;39042;53.150;5.898;2024-02-14T12:46:07;12.10;;;6.88;;
53145;SDS011;39042;53.150;5.898;2024-02-14T12:48:33;12.43;;;6.47;;
53145;SDS011;39042;53.150;5.898;2024-02-14T12:50:58;16.33;;;6.97;;
53145;SDS011;39042;53.150;5.898;2024-02-14T12:53:24;17.80;;;8.07;;
53145;SDS011;39042;53.150;5.898;2024-02-14T12:55:50;14.90;;;7.83;;
53145;SDS011;39042;53.150;5.898;2024-02-14T12:58:16;20.60;;;8.85;;
53145;SDS011;39042;53.150;5.898;2024-02-14T13:00:42;17.92;;;9.75;;
53145;SDS011;39042;53.150;5.898;2024-02-14T13:03:10;17.63;;;9.27;;
53145;SDS011;39042;53.150;5.898;2024-02-14T13:08:02;21.73;;;10.88;;
53145;SDS011;39042;53.150;5.898;2024-02-14T13:10:28;19.80;;;9.85;;
53145;SDS011;39042;53.150;5.898;2024-02-14T13:12:56;17.67;;;10.10;;
53145;SDS011;39042;53.150;5.898;2024-02-14T13:15:22;18.35;;;10.02;;
53145;SDS011;39042;53.150;5.898;2024-02-14T13:17:48;18.97;;;10.83;;
53145;SDS011;39042;53.150;5.898;2024-02-14T13:20:14;20.13;;;9.40;;
53145;SDS011;39042;53.150;5.898;2024-02-14T13:22:41;19.35;;;11.55;;
53145;SDS011;39042;53.150;5.898;2024-02-14T13:25:08;25.83;;;11.65;;
53145;SDS011;39042;53.150;5.898;2024-02-14T13:27:34;22.25;;;11.57;;
53145;SDS011;39042;53.150;5.898;2024-02-14T13:30:03;20.98;;;10.68;;
53145;SDS011;39042;53.150;5.898;2024-02-14T13:32:32;21.10;;;10.98;;
53145;SDS011;39042;53.150;5.898;2024-02-14T13:34:58;15.45;;;9.07;;
53145;SDS011;39042;53.150;5.898;2024-02-14T13:37:26;15.60;;;7.93;;
53145;SDS011;39042;53.150;5.898;2024-02-14T13:39:52;10.90;;;7.28;;
53145;SDS011;39042;53.150;5.898;2024-02-14T13:42:18;10.87;;;6.37;;
53145;SDS011;39042;53.150;5.898;2024-02-14T13:44:44;10.80;;;5.82;;
53145;SDS011;39042;53.150;5.898;2024-02-14T13:47:18;8.77;;;5.40;;
53145;SDS011;39042;53.150;5.898;2024-02-14T13:49:44;9.32;;;5.88;;
53145;SDS011;39042;53.150;5.898;2024-02-14T13:52:10;10.52;;;5.85;;
53145;SDS011;39042;53.150;5.898;2024-02-14T13:54:37;10.00;;;5.15;;
53145;SDS011;39042;53.150;5.898;2024-02-14T13:57:02;10.67;;;6.07;;
53145;SDS011;39042;53.150;5.898;2024-02-14T13:59:29;12.68;;;6.47;;
53145;SDS011;39042;53.150;5.898;2024-02-14T14:01:54;9.73;;;6.40;;
53145;SDS011;39042;53.150;5.898;2024-02-14T14:04:20;10.07;;;5.97;;
53145;SDS011;39042;53.150;5.898;2024-02-14T14:06:46;9.80;;;6.05;;
53145;SDS011;39042;53.150;5.898;2024-02-14T14:09:13;8.70;;;5.55;;
53145;SDS011;39042;53.150;5.898;2024-02-14T14:11:39;8.38;;;6.00;;
53145;SDS011;39042;53.150;5.898;2024-02-14T14:14:07;7.40;;;5.40;;
53145;SDS011;39042;53.150;5.898;2024-02-14T14:16:33;7.68;;;5.03;;
53145;SDS011;39042;53.150;5.898;2024-02-14T14:19:00;7.32;;;4.80;;
53145;SDS011;39042;53.150;5.898;2024-02-14T14:21:26;5.55;;;4.10;;
53145;SDS011;39042;53.150;5.898;2024-02-14T14:23:52;4.40;;;3.03;;
53145;SDS011;39042;53.150;5.898;2024-02-14T14:26:18;4.78;;;3.25;;
53145;SDS011;39042;53.150;5.898;2024-02-14T14:28:45;4.57;;;3.45;;
53145;SDS011;39042;53.150;5.898;2024-02-14T14:31:11;5.55;;;3.88;;
53145;SDS011;39042;53.150;5.898;2024-02-14T14:33:37;6.37;;;4.50;;
53145;SDS011;39042;53.150;5.898;2024-02-14T14:36:03;7.32;;;4.63;;
53145;SDS011;39042;53.150;5.898;2024-02-14T14:40:57;7.15;;;4.70;;
53145;SDS011;39042;53.150;5.898;2024-02-14T14:43:24;7.68;;;4.80;;
53145;SDS011;39042;53.150;5.898;2024-02-14T14:45:52;7.05;;;5.00;;
53145;SDS011;39042;53.150;5.898;2024-02-14T14:48:22;7.18;;;4.57;;
53145;SDS011;39042;53.150;5.898;2024-02-14T14:50:49;9.60;;;6.40;;
53145;SDS011;39042;53.150;5.898;2024-02-14T14:53:22;9.90;;;7.00;;
53145;SDS011;39042;53.150;5.898;2024-02-14T14:55:49;12.75;;;7.35;;